Time;durP1;ratioP1;P1;durP2;ratioP2;P2;SDS_P1;SDS_P2;PMS_P1;PMS_P2;Temp;Humidity;BMP_temperature;BMP_pressure;BME280_temperature;BME280_humidity;BME280_pressure;Samples;Min_cycle;Max_cycle;Signal;HPM_P1;HPM_P2
2021/11/12 00:03:09;;;;;;;3.42;2.85;;;20.20;48.80;;;23.86;33.13;102010.56;5092930;28;20050;-36
2021/11/12 00:13:48;;;;;;;4.20;3.08;;;20.20;48.90;;;23.86;33.06;102010.56;5093338;28;20149;-41
2021/11/12 00:16:14;;;;;;;4.57;3.08;;;20.20;48.90;;;23.88;33.07;102018.50;5092426;28;20085;-37
2021/11/12 00:18:40;;;;;;;3.50;2.72;;;20.20;49.00;;;23.83;33.08;102006.25;5092930;28;20036;-35
2021/11/12 00:21:06;;;;;;;4.15;3.13;;;20.20;49.00;;;23.84;33.01;102004.47;5089716;28;20052;-41
2021/11/12 00:23:35;;;;;;;3.90;3.05;;;20.10;49.00;;;23.82;33.02;101998.31;5093009;28;20051;-35
2021/11/12 00:26:02;;;;;;;3.65;3.05;;;20.20;49.10;;;23.85;32.93;102000.81;5092971;28;20044;-40
2021/11/12 00:28:33;;;;;;;3.15;2.72;;;20.10;49.00;;;23.87;33.24;101998.91;5092596;28;20505;-39
2021/11/12 00:31:43;;;;;;;2.92;2.63;;;20.10;49.10;;;23.87;33.14;102001.59;5094600;28;20399;-39
2021/11/12 00:38:51;;;;;;;3.22;2.85;;;20.10;49.60;;;23.85;32.86;102001.69;5095948;28;20048;-41
2021/11/12 00:41:32;;;;;;;4.13;3.00;;;20.10;49.00;;;23.87;33.10;101993.56;5096138;28;20067;-39
2021/11/12 00:44:05;;;;;;;3.63;2.63;;;20.10;49.00;;;23.85;33.04;101993.66;5096425;28;20059;-38
2021/11/12 00:46:44;;;;;;;3.35;2.58;;;20.10;49.10;;;23.85;33.11;101993.66;5096139;28;20047;-40
2021/11/12 00:49:13;;;;;;;3.90;3.05;;;20.10;49.00;;;23.86;33.16;101995.41;5095753;28;20170;-40
2021/11/12 00:51:50;;;;;;;3.30;2.90;;;20.10;49.00;;;23.86;33.04;101989.19;5095895;28;20368;-41
2021/11/12 00:54:18;;;;;;;2.97;2.72;;;20.10;49.00;;;23.83;32.97;101986.69;5094400;28;20530;-41
2021/11/12 00:56:44;;;;;;;2.72;2.35;;;20.20;49.00;;;23.88;32.96;101991.78;5095878;28;20399;-42
2021/11/12 00:59:10;;;;;;;4.45;3.50;;;20.20;49.00;;;23.83;32.98;101984.88;5095616;28;20059;-38
2021/11/12 01:01:39;;;;;;;3.70;2.85;;;20.20;49.00;;;23.85;32.89;101990.13;5095874;28;20092;-35
2021/11/12 01:04:10;;;;;;;3.50;2.85;;;20.20;49.00;;;23.86;33.05;102000.75;5095974;28;20048;-38
2021/11/12 01:06:38;;;;;;;3.72;2.95;;;20.20;49.00;;;23.85;32.79;101996.34;5078044;28;20123;-42
2021/11/12 01:09:11;;;;;;;3.40;3.03;;;20.20;49.00;;;23.85;32.93;101999.00;5095325;28;20071;-41
2021/11/12 01:11:39;;;;;;;3.72;3.00;;;20.10;48.90;;;23.87;33.09;102001.59;5095598;28;20415;-41
2021/11/12 01:14:06;;;;;;;4.65;3.35;;;20.10;48.90;;;23.85;33.14;101996.34;5095638;28;20044;-40
2021/11/12 01:16:33;;;;;;;3.78;3.00;;;20.20;49.00;;;23.86;33.14;101994.53;5095524;28;20044;-41
2021/11/12 01:19:00;;;;;;;3.05;2.75;;;20.20;49.00;;;23.86;32.92;101997.22;5095415;28;20124;-39
2021/11/12 01:21:26;;;;;;;3.03;2.72;;;20.10;49.00;;;23.82;32.96;101991.19;5095712;28;20036;-39
2021/11/12 01:23:55;;;;;;;4.07;3.08;;;20.10;49.10;;;23.85;32.86;101990.13;5095761;28;20088;-40
2021/11/12 01:26:23;;;;;;;4.40;3.22;;;20.10;49.10;;;23.82;33.19;101987.63;5095438;28;20123;-35
2021/11/12 01:28:50;;;;;;;3.25;2.95;;;20.10;49.10;;;23.81;33.16;101984.09;5095556;28;20392;-41
2021/11/12 01:31:16;;;;;;;5.43;3.67;;;20.10;49.10;;;23.83;33.18;101981.34;5095220;28;20174;-39
2021/11/12 01:33:43;;;;;;;3.65;3.10;;;20.10;49.10;;;23.81;33.00;101970.72;5095283;28;20044;-36
2021/11/12 01:36:32;;;;;;;3.70;3.20;;;20.10;49.20;;;23.78;33.16;101964.72;5095283;28;20044;-42
2021/11/12 01:39:01;;;;;;;3.75;3.08;;;20.10;49.10;;;23.82;32.93;101967.16;5095457;28;20035;-41
2021/11/12 01:41:28;;;;;;;4.40;3.10;;;20.10;49.10;;;23.83;33.21;101965.34;5095366;28;20048;-40
2021/11/12 01:43:56;;;;;;;3.88;3.33;;;20.10;49.10;;;23.81;33.19;101954.69;5095175;28;20204;-40
2021/11/12 01:51:53;;;;;;;3.20;2.80;;;20.10;49.10;;;23.78;32.95;101951.34;5095204;28;20051;-38
2021/11/12 01:54:36;;;;;;;4.57;3.10;;;20.10;49.10;;;23.82;33.10;101950.25;5095316;28;20048;-41
2021/11/12 01:59:34;;;;;;;3.38;2.90;;;20.10;49.10;;;23.80;33.09;101939.63;5095039;28;20056;-40
2021/11/12 02:02:07;;;;;;;3.70;2.97;;;20.10;49.10;;;23.79;33.20;101942.38;5095144;28;20093;-38
2021/11/12 02:04:34;;;;;;;3.95;3.35;;;20.10;49.10;;;23.80;33.01;101938.75;5094777;28;20048;-37
2021/11/12 02:07:00;;;;;;;3.58;3.08;;;20.10;49.10;;;23.78;32.98;101946.88;5094793;28;20165;-38
2021/11/12 02:09:28;;;;;;;3.67;2.90;;;20.10;49.10;;;23.75;33.23;101944.38;5094556;28;20056;-36
2021/11/12 02:12:17;;;;;;;3.53;3.00;;;20.10;49.10;;;23.79;33.00;101953.06;5094665;28;20051;-40
2021/11/12 02:14:46;;;;;;;3.30;3.00;;;20.10;49.20;;;23.81;33.24;101949.38;5095019;28;20047;-38
2021/11/12 02:17:25;;;;;;;3.72;3.30;;;20.10;49.10;;;23.77;33.17;101937.16;5094644;28;20048;-40
2021/11/12 02:20:42;;;;;;;4.05;3.60;;;20.10;49.10;;;23.79;33.05;101947.72;5094604;28;20467;-36
2021/11/12 02:22:48;;;;;;;4.40;3.40;;;20.10;49.10;;;23.82;33.23;101940.44;5091437;28;20059;-39
2021/11/12 02:25:25;;;;;;;3.90;3.25;;;20.10;49.10;;;23.79;33.19;101935.25;5094311;28;20044;-40
2021/11/12 02:27:57;;;;;;;4.40;3.30;;;20.10;49.10;;;23.79;32.96;101935.25;5090775;28;20043;-36
2021/11/12 02:30:29;;;;;;;4.65;3.17;;;20.10;49.20;;;23.74;33.11;101921.28;5094456;28;20575;-39
2021/11/12 02:33:00;;;;;;;3.70;2.60;;;20.00;49.10;;;23.78;33.23;101924.66;5077551;28;20048;-41
2021/11/12 02:35:27;;;;;;;4.32;3.33;;;20.00;49.10;;;23.78;33.24;101928.16;5094319;28;20055;-41
2021/11/12 02:37:55;;;;;;;3.90;3.00;;;20.10;49.10;;;23.77;32.93;101918.47;5094215;28;20036;-39
2021/11/12 02:40:22;;;;;;;3.83;3.28;;;20.10;49.20;;;23.77;33.15;101922.91;5094165;28;20052;-38
2021/11/12 02:42:49;;;;;;;3.75;2.80;;;20.10;49.10;;;23.78;33.14;101927.31;5094237;28;20083;-42
2021/11/12 02:45:15;;;;;;;3.25;2.95;;;20.10;49.00;;;23.79;33.24;101926.34;5094168;28;20483;-41
2021/11/12 02:47:40;;;;;;;5.68;3.97;;;20.10;49.00;;;23.75;33.04;101919.47;5093752;28;20063;-40
2021/11/12 02:50:07;;;;;;;5.22;3.40;;;20.10;49.10;;;23.76;33.08;101921.22;5075725;28;20487;-40
2021/11/12 02:52:32;;;;;;;3.90;3.03;;;20.00;49.10;;;23.78;32.99;101917.47;5093790;28;20468;-40
2021/11/12 02:54:58;;;;;;;3.92;3.05;;;20.00;49.10;;;23.78;32.96;101917.47;5093884;28;20059;-39
2021/11/12 02:57:28;;;;;;;4.88;3.72;;;20.10;49.10;;;23.78;33.14;101913.97;5094018;28;20048;-41
2021/11/12 02:59:55;;;;;;;4.45;3.38;;;20.00;49.10;;;23.74;33.04;101907.06;5093736;28;20097;-36
2021/11/12 03:02:21;;;;;;;3.97;3.50;;;20.00;49.10;;;23.78;33.13;101911.28;5094191;28;20067;-41
2021/11/12 03:04:46;;;;;;;3.28;2.97;;;20.00;49.10;;;23.73;33.12;101906.22;5093778;28;20051;-38
2021/11/12 03:07:12;;;;;;;3.65;3.33;;;20.00;49.10;;;23.75;33.03;101903.44;5094132;28;20144;-37
2021/11/12 03:09:38;;;;;;;3.97;3.60;;;20.00;49.10;;;23.75;33.27;101898.97;5093563;28;20055;-38
2021/11/12 03:12:06;;;;;;;4.55;3.58;;;20.10;49.20;;;23.74;33.13;101888.38;5093922;28;20040;-38
2021/11/12 03:14:33;;;;;;;5.57;3.38;;;20.00;49.10;;;23.73;33.23;101892.00;5075708;28;20048;-37
2021/11/12 03:16:59;;;;;;;4.07;3.30;;;20.10;49.10;;;23.77;33.22;101894.41;5093663;28;20059;-38
2021/11/12 03:19:27;;;;;;;3.58;3.05;;;20.10;49.10;;;23.77;33.06;101890.88;5093423;28;20078;-41
2021/11/12 03:22:01;;;;;;;4.13;3.35;;;20.10;49.00;;;23.74;33.24;101880.34;5093623;28;20103;-38
2021/11/12 03:24:31;;;;;;;4.78;3.65;;;20.10;49.00;;;23.75;33.15;101880.28;5093815;28;20060;-41
2021/11/12 04:00:20;;;;;;;3.80;3.08;;;20.30;48.50;;;23.92;32.85;101876.66;5093109;28;20127;-35
2021/11/12 04:03:08;;;;;;;3.80;3.25;;;20.40;48.50;;;23.96;32.93;101880.03;5092856;28;20048;-39
2021/11/12 04:21:58;;;;;;;4.03;3.35;;;20.60;48.10;;;24.12;33.04;101871.94;5092787;28;20047;-42
2021/11/12 04:41:14;;;;;;;3.65;3.10;;;20.60;48.00;;;24.18;32.93;101852.88;5092787;28;20052;-36
2021/11/12 05:03:13;;;;;;;3.53;3.08;;;20.60;48.00;;;24.24;32.76;101836.50;5092268;28;20531;-41
2021/11/12 05:14:09;;;;;;;3.70;3.30;;;20.60;48.00;;;24.25;32.49;101851.56;5092430;28;20407;-41
2021/11/12 05:44:06;;;;;;;4.25;3.20;;;20.60;47.90;;;24.28;32.39;101808.63;5095145;28;20548;-40
2021/11/12 05:46:50;;;;;;;3.97;3.40;;;20.60;47.90;;;24.31;32.40;101820.94;5095561;28;20494;-35
2021/11/12 05:52:14;;;;;;;4.70;3.53;;;20.60;48.00;;;24.28;32.59;101813.09;5095266;28;20083;-38
2021/11/12 05:57:24;;;;;;;3.83;2.92;;;20.60;48.00;;;24.29;32.38;101812.13;5077641;28;20044;-40
2021/11/12 05:59:50;;;;;;;3.70;2.90;;;20.60;48.00;;;24.28;32.38;101803.28;5095081;28;20051;-38
2021/11/12 06:02:16;;;;;;;3.17;2.88;;;20.60;48.00;;;24.28;32.48;101800.59;5094825;28;20109;-36
2021/11/12 06:04:43;;;;;;;3.78;3.15;;;20.60;48.00;;;24.27;32.54;101795.34;5095298;28;20036;-41
2021/11/12 06:07:09;;;;;;;3.80;3.22;;;20.60;48.00;;;24.28;32.46;101797.91;5094743;28;20176;-40
2021/11/12 06:09:36;;;;;;;4.50;3.45;;;20.60;48.00;;;24.28;32.36;101789.06;5094601;28;20079;-38
2021/11/12 06:12:02;;;;;;;3.83;2.92;;;20.60;48.00;;;24.28;32.64;101786.38;5094661;28;20040;-41
2021/11/12 06:14:29;;;;;;;3.55;3.00;;;20.60;48.10;;;24.26;32.39;101782.91;5094959;28;20490;-39
2021/11/12 06:16:55;;;;;;;4.75;3.28;;;20.60;48.10;;;24.25;32.39;101782.06;5094535;28;20123;-39
2021/11/12 06:19:22;;;;;;;3.45;2.97;;;20.60;48.10;;;24.27;32.39;101788.19;5076014;28;20131;-37
2021/11/12 06:21:49;;;;;;;3.45;3.10;;;20.60;48.00;;;24.28;32.44;101794.41;5094504;28;20060;-36
2021/11/12 06:24:16;;;;;;;4.00;3.47;;;20.50;48.00;;;24.24;32.54;101777.69;5094530;28;20048;-38
2021/11/12 06:26:41;;;;;;;3.80;3.10;;;20.50;48.00;;;24.26;32.40;101781.13;5094469;28;20173;-40
2021/11/12 06:29:08;;;;;;;3.63;3.15;;;20.50;48.00;;;24.26;32.35;101781.13;5093570;28;20140;-39
2021/11/12 06:31:34;;;;;;;3.35;3.05;;;20.50;48.10;;;24.22;32.49;101771.56;5094410;28;20131;-39
2021/11/12 06:34:00;;;;;;;3.55;3.10;;;20.50;48.10;;;24.23;32.66;101762.59;5094897;28;20043;-37
2021/11/12 06:36:26;;;;;;;3.50;3.08;;;20.50;48.10;;;24.26;32.41;101761.53;5094358;28;20044;-40
2021/11/12 06:38:54;;;;;;;4.07;3.10;;;20.50;48.00;;;24.26;32.69;101753.53;5094270;28;20404;-40
2021/11/12 06:49:50;;;;;;;3.65;2.90;;;20.60;48.20;;;24.24;32.45;101740.28;5093994;28;20047;-37
2021/11/12 06:52:18;;;;;;;4.28;3.22;;;20.60;48.20;;;24.26;32.46;101735.69;5094010;28;20047;-39
2021/11/12 06:54:47;;;;;;;4.13;3.05;;;20.60;48.30;;;24.28;32.66;101738.28;5093852;28;20056;-41
2021/11/12 06:57:17;;;;;;;4.00;3.20;;;20.60;48.20;;;24.25;32.44;101754.50;5093677;28;20491;-41
2021/11/12 06:59:43;;;;;;;3.80;3.22;;;20.60;48.20;;;24.27;32.57;101750.75;5075984;28;20047;-38
2021/11/12 07:02:13;;;;;;;3.58;3.25;;;20.60;48.10;;;24.28;32.41;101757.84;5093727;28;20546;-41
2021/11/12 07:04:40;;;;;;;3.72;2.88;;;20.60;48.10;;;24.30;32.72;101760.41;5093687;28;20055;-40
2021/11/12 07:07:06;;;;;;;3.42;3.08;;;20.60;48.10;;;24.26;32.64;101746.38;5093443;28;20052;-37
2021/11/12 07:09:35;;;;;;;3.40;2.88;;;20.60;48.10;;;24.29;32.49;101764.91;5093595;28;20106;-38
2021/11/12 07:12:01;;;;;;;3.10;2.80;;;20.60;48.20;;;24.30;32.64;101763.09;5093608;28;20036;-38
2021/11/12 07:14:27;;;;;;;4.05;3.05;;;20.60;48.20;;;24.30;32.50;101766.59;5093522;28;20067;-35
2021/11/12 07:16:53;;;;;;;4.03;3.35;;;20.60;48.20;;;24.29;32.68;101778.28;5093406;28;20048;-39
2021/11/12 07:19:19;;;;;;;3.65;3.30;;;20.60;48.20;;;24.28;32.44;101765.84;5093180;28;20052;-41
2021/11/12 07:21:45;;;;;;;3.97;3.05;;;20.60;48.20;;;24.30;32.57;101782.66;5075157;28;20139;-40
2021/11/12 07:24:11;;;;;;;4.80;2.90;;;20.60;48.20;;;24.31;32.59;101763.00;5075292;28;20539;-39
2021/11/12 07:26:37;;;;;;;3.42;3.00;;;20.60;48.10;;;24.32;32.35;101764.69;5075691;28;20051;-36
2021/11/12 07:29:04;;;;;;;3.83;3.03;;;20.60;48.10;;;24.30;32.48;101750.56;5093299;28;20072;-40
2021/11/12 07:31:31;;;;;;;4.22;3.50;;;20.60;48.10;;;24.31;32.54;101748.78;5093236;28;20040;-37
2021/11/12 07:33:59;;;;;;;3.97;2.97;;;20.60;48.10;;;24.33;32.29;101754.88;5093564;28;20074;-40
2021/11/12 07:36:35;;;;;;;4.00;3.40;;;20.60;48.10;;;24.34;32.35;101740.53;5093112;28;20563;-39
2021/11/12 07:39:06;;;;;;;3.20;2.90;;;20.60;48.00;;;24.35;32.44;101742.28;5092999;28;20050;-37
2021/11/12 07:46:44;;;;;;;2.97;2.63;;;20.70;48.10;;;24.36;32.42;101744.00;5093142;28;20063;-39
2021/11/12 07:49:12;;;;;;;3.35;2.88;;;20.60;48.00;;;24.36;32.40;101741.34;5093432;28;20388;-40
2021/11/12 07:51:41;;;;;;;3.20;2.90;;;20.60;48.00;;;24.35;32.61;101736.94;5092880;28;20040;-40
2021/11/12 07:54:07;;;;;;;4.00;2.80;;;20.60;48.10;;;24.30;32.51;101715.81;5092864;28;20040;-37
2021/11/12 07:56:33;;;;;;;4.70;3.25;;;20.60;48.10;;;24.33;32.40;101717.47;5092949;28;20130;-36
2021/11/12 07:58:59;;;;;;;3.33;3.03;;;20.60;48.00;;;24.34;32.46;101722.72;5092591;28;20072;-42
2021/11/12 08:01:25;;;;;;;4.38;2.95;;;20.60;48.00;;;24.33;32.36;101731.69;5092927;28;20041;-41
2021/11/12 08:03:54;;;;;;;3.95;3.40;;;20.60;48.00;;;24.31;32.42;101730.91;5092714;28;20047;-38
2021/11/12 08:06:24;;;;;;;3.00;2.70;;;20.60;48.00;;;24.32;32.55;101729.09;5092641;28;20044;-35
2021/11/12 08:08:57;;;;;;;4.60;3.30;;;20.60;48.00;;;24.36;32.37;101733.31;5092679;28;20483;-38
2021/11/12 08:11:33;;;;;;;3.13;2.65;;;20.60;48.00;;;24.35;32.38;101731.59;5092726;28;20122;-38
2021/11/12 08:14:08;;;;;;;3.42;2.90;;;20.60;48.00;;;24.38;32.41;101729.56;5093254;28;20582;-40
2021/11/12 08:19:23;;;;;;;3.83;3.08;;;20.70;48.00;;;24.34;32.52;101706.69;5077414;28;20047;-36
2021/11/12 08:24:34;;;;;;;5.32;3.78;;;20.70;48.10;;;24.38;32.67;101708.19;5092698;28;20040;-34
2021/11/12 08:29:54;;;;;;;9.48;4.90;;;20.60;48.20;;;24.36;32.37;101706.59;5092215;28;20127;-38
2021/11/12 08:35:07;;;;;;;10.55;5.63;;;20.50;47.60;;;24.28;32.35;101708.88;5092899;28;20080;-38
2021/11/12 08:40:37;;;;;;;7.93;5.75;;;20.40;47.50;;;24.20;32.20;101695.97;5092193;28;20045;-38
2021/11/12 08:43:27;;;;;;;7.85;5.03;;;20.40;47.50;;;24.22;32.20;101702.97;5076676;28;20142;-37
2021/11/12 08:48:34;;;;;;;7.95;5.47;;;20.40;47.40;;;24.23;32.26;101695.78;5092092;28;20040;-39
2021/11/12 08:51:00;;;;;;;10.50;5.97;;;20.40;47.30;;;24.19;31.98;101689.78;5092995;28;20395;-40
2021/11/12 08:53:26;;;;;;;8.30;5.38;;;20.40;47.40;;;24.16;32.13;101687.31;5096115;28;20538;-39
2021/11/12 08:55:51;;;;;;;8.27;5.13;;;20.40;47.50;;;24.17;32.13;101688.16;5095424;28;20135;-39
2021/11/12 08:58:17;;;;;;;7.60;4.72;;;20.40;47.40;;;24.19;32.16;101688.91;5095172;28;20059;-38
2021/11/12 09:00:43;;;;;;;7.43;5.10;;;20.40;47.30;;;24.19;32.24;101680.91;5095177;28;20058;-39
2021/11/12 09:03:11;;;;;;;9.30;5.22;;;20.40;47.30;;;24.17;32.10;101688.16;5095313;28;20044;-39
2021/11/12 09:05:37;;;;;;;6.35;4.32;;;20.50;47.40;;;24.18;32.34;101680.03;5095495;28;20055;-35
2021/11/12 09:08:04;;;;;;;7.90;4.03;;;20.50;47.70;;;24.21;32.21;101673.66;5094370;28;20467;-34
2021/11/12 09:10:30;;;;;;;5.50;4.38;;;20.60;47.60;;;24.25;32.25;101677.00;5095179;28;20491;-33
2021/11/12 09:13:08;;;;;;;4.43;3.25;;;20.70;47.50;;;24.28;32.18;101682.16;5077494;28;20131;-34
2021/11/12 09:15:34;;;;;;;4.05;3.13;;;20.70;47.50;;;24.33;32.05;101680.03;5095611;28;20156;-33
2021/11/12 09:18:02;;;;;;;4.47;3.20;;;20.70;47.50;;;24.33;32.34;101674.69;5076970;28;20044;-33
2021/11/12 09:20:29;;;;;;;4.32;3.17;;;20.70;47.60;;;24.32;32.35;101671.16;5095344;28;20046;-34
2021/11/12 09:22:58;;;;;;;3.97;3.20;;;20.70;47.60;;;24.34;32.32;101679.06;5093835;28;20044;-34
2021/11/12 09:25:24;;;;;;;3.63;2.95;;;20.70;47.60;;;24.36;32.33;101677.19;5095245;28;20054;-34
2021/11/12 09:27:51;;;;;;;2.90;2.63;;;20.70;47.60;;;24.36;32.39;101674.50;5095252;28;20044;-33
2021/11/12 09:30:25;;;;;;;3.67;2.40;;;20.70;47.60;;;24.36;32.17;101672.69;5095289;28;20403;-34
2021/11/12 09:32:54;;;;;;;2.88;2.50;;;20.70;47.60;;;24.37;32.32;101668.19;5095696;28;20055;-34
2021/11/12 09:35:22;;;;;;;3.53;2.60;;;20.80;47.60;;;24.38;32.31;101669.91;5094957;28;20036;-34
2021/11/12 09:37:49;;;;;;;3.97;2.90;;;20.70;47.60;;;24.34;32.19;101655.03;5094897;28;20101;-34
2021/11/12 09:40:16;;;;;;;3.78;2.90;;;20.70;47.60;;;24.37;32.21;101662.84;5095027;28;20048;-34
2021/11/12 09:42:43;;;;;;;2.92;2.63;;;20.80;47.60;;;24.37;32.18;101663.72;5094963;28;20036;-34
2021/11/12 09:45:10;;;;;;;3.83;2.83;;;20.70;47.50;;;24.41;32.25;101670.56;5094880;28;20052;-34
2021/11/12 09:47:39;;;;;;;2.97;2.55;;;20.80;47.60;;;24.42;32.33;101661.63;5094804;28;20052;-34
2021/11/12 09:50:12;;;;;;;6.38;2.50;;;20.80;47.60;;;24.39;32.14;101663.59;5094771;28;20052;-34
2021/11/12 09:52:41;;;;;;;3.83;2.58;;;20.80;47.60;;;24.43;32.16;101675.81;5094698;28;20063;-33
2021/11/12 09:55:08;;;;;;;2.50;2.30;;;20.80;47.60;;;24.40;32.29;101666.16;5094692;28;20079;-34
2021/11/12 09:57:34;;;;;;;3.42;2.63;;;20.80;47.60;;;24.42;32.40;101664.28;5094714;28;20056;-33
2021/11/12 10:00:06;;;;;;;3.45;2.85;;;20.80;47.60;;;24.40;32.08;101650.13;5094433;28;20380;-34
2021/11/12 10:02:44;;;;;;;2.53;2.33;;;20.80;47.60;;;24.41;32.10;101646.53;5093416;28;20048;-34
2021/11/12 10:05:29;;;;;;;2.90;2.60;;;20.80;47.60;;;24.42;32.33;101642.03;5094677;28;20087;-33
2021/11/12 10:07:55;;;;;;;3.78;2.63;;;20.80;47.60;;;24.45;32.27;101644.50;5094724;28;20052;-34
2021/11/12 10:10:23;;;;;;;3.28;2.75;;;20.80;47.60;;;24.42;32.33;101636.69;5076477;28;20060;-34
2021/11/12 10:12:51;;;;;;;4.53;2.33;;;20.80;47.60;;;24.47;32.12;101633.72;5094917;28;20059;-34
2021/11/12 10:15:23;;;;;;;3.28;2.42;;;20.80;47.50;;;24.48;32.07;101643.47;5094525;28;20484;-34
2021/11/12 10:17:52;;;;;;;2.70;2.30;;;20.90;47.50;;;24.47;32.13;101637.22;5094621;28;20048;-33
2021/11/12 10:20:22;;;;;;;3.97;2.58;;;20.90;47.40;;;24.52;32.19;101631.59;5094225;28;20504;-34
2021/11/12 10:22:51;;;;;;;2.50;2.30;;;20.90;47.40;;;24.52;32.26;101635.13;5094266;28;20083;-34
2021/11/12 10:25:19;;;;;;;3.08;2.58;;;20.90;47.30;;;24.53;31.99;101638.66;5093922;28;20433;-33
2021/11/12 10:27:50;;;;;;;3.78;2.28;;;20.90;47.30;;;24.54;32.05;101635.91;5094124;28;20047;-34
2021/11/12 10:30:25;;;;;;;4.65;2.40;;;20.90;47.40;;;24.54;32.34;101633.22;5093752;28;20105;-36
2021/11/12 10:32:58;;;;;;;3.05;2.50;;;20.90;47.40;;;24.57;32.29;101626.84;5094293;28;20082;-36
2021/11/12 10:35:30;;;;;;;4.65;2.40;;;20.90;47.40;;;24.54;32.21;101621.66;5094163;28;20051;-36
2021/11/12 10:38:10;;;;;;;2.60;2.40;;;21.00;47.40;;;24.55;32.20;101621.59;5094196;28;20131;-35
2021/11/12 10:40:37;;;;;;;7.38;3.00;;;21.00;47.40;;;24.60;32.21;101624.81;5093980;28;20079;-35
2021/11/12 10:43:02;;;;;;;5.00;3.05;;;21.00;47.40;;;24.62;32.08;101616.69;5094095;28;20048;-35
2021/11/12 10:45:32;;;;;;;5.32;2.65;;;21.00;47.40;;;24.62;32.36;101622.03;5076014;28;20075;-35
2021/11/12 10:48:06;;;;;;;9.38;2.97;;;21.00;47.50;;;24.62;32.15;101622.03;5093908;28;20510;-36
2021/11/12 10:50:36;;;;;;;10.85;3.33;;;21.10;47.40;;;24.66;32.14;101626.25;5094104;28;20495;-34
2021/11/12 10:53:15;;;;;;;9.77;3.70;;;21.10;47.30;;;24.65;32.00;101615.66;5093729;28;20134;-35
2021/11/12 10:55:43;;;;;;;6.80;3.40;;;21.10;47.30;;;24.67;32.00;101614.56;5075207;28;20096;-36
2021/11/12 10:58:12;;;;;;;9.65;3.45;;;21.10;47.30;;;24.72;32.09;101623.16;5092845;28;20146;-36
2021/11/12 11:00:45;;;;;;;14.57;3.72;;;21.10;47.30;;;24.71;32.06;101621.44;5073351;28;20055;-35
2021/11/12 11:03:20;;;;;;;10.43;3.22;;;21.10;47.30;;;24.73;32.14;101616.00;5092113;28;20181;-41
2021/11/12 11:06:02;;;;;;;16.25;3.72;;;21.10;47.30;;;24.72;32.18;101604.44;5093066;28;20051;-34
2021/11/12 11:08:34;;;;;;;14.75;4.43;;;21.10;47.30;;;24.73;31.96;101594.59;5093339;28;20040;-34
2021/11/12 11:11:06;;;;;;;8.88;3.90;;;21.10;47.30;;;24.73;31.96;101589.25;5093050;28;20074;-35
2021/11/12 11:13:40;;;;;;;12.70;3.80;;;21.10;47.30;;;24.74;32.21;101581.13;5093491;28;20438;-39
2021/11/12 11:16:10;;;;;;;10.48;3.67;;;21.10;47.30;;;24.77;32.05;101575.59;5093477;28;20061;-40
2021/11/12 11:18:40;;;;;;;14.82;3.92;;;21.20;47.40;;;24.78;32.15;101571.94;5093392;28;20048;-42
2021/11/12 11:21:08;;;;;;;10.88;3.83;;;21.20;47.30;;;24.81;31.99;101576.25;5092635;28;20071;-39
2021/11/12 11:23:46;;;;;;;12.10;3.70;;;21.20;47.20;;;24.76;32.20;101563.16;5093404;28;20462;-39
2021/11/12 11:26:24;;;;;;;13.90;3.47;;;21.20;47.20;;;24.74;32.03;101553.50;5093480;28;20472;-39
2021/11/12 11:29:01;;;;;;;8.32;2.92;;;21.20;47.20;;;24.81;32.10;101551.28;5093253;28;20051;-39
2021/11/12 11:31:29;;;;;;;12.15;3.83;;;21.20;47.20;;;24.77;32.01;101537.28;5093446;28;20073;-39
2021/11/12 11:33:56;;;;;;;9.70;3.40;;;21.20;47.20;;;24.77;31.96;101534.59;5093421;28;20131;-40
2021/11/12 11:36:27;;;;;;;11.25;2.90;;;21.20;47.20;;;24.75;32.22;101532.03;5093050;28;20044;-40
2021/11/12 11:38:57;;;;;;;8.50;3.13;;;21.20;47.20;;;24.76;32.15;101536.41;5093177;28;20511;-41
2021/11/12 11:41:26;;;;;;;5.57;3.13;;;21.20;47.20;;;24.81;32.11;101538.78;5074967;28;20122;-39
2021/11/12 11:43:52;;;;;;;10.82;3.10;;;21.20;47.70;;;24.80;32.17;101528.19;5093150;28;20131;-39
2021/11/12 11:46:28;;;;;;;9.93;3.10;;;21.20;47.20;;;24.76;32.03;101528.41;5091181;28;20135;-40
2021/11/12 11:49:00;;;;;;;8.55;3.17;;;21.20;47.30;;;24.77;31.99;101527.44;5058027;28;20142;-40
2021/11/12 11:51:34;;;;;;;8.65;3.30;;;21.10;47.30;;;24.77;32.01;101521.22;5092723;28;20040;-40
2021/11/12 11:54:01;;;;;;;10.40;3.38;;;21.10;47.30;;;24.79;32.04;101519.28;5093317;28;20049;-41
2021/11/12 11:56:31;;;;;;;10.30;3.20;;;21.10;47.30;;;24.75;31.95;101502.59;5093231;28;20044;-39
2021/11/12 11:59:17;;;;;;;11.05;3.28;;;21.10;47.30;;;24.73;31.99;101509.03;5092681;28;20043;-40
2021/11/12 12:01:53;;;;;;;7.07;3.00;;;21.10;47.30;;;24.76;32.04;101495.47;5092864;28;20048;-40
2021/11/12 12:04:19;;;;;;;6.55;3.05;;;21.10;47.30;;;24.77;31.98;101498.03;5093032;28;20056;-40
2021/11/12 12:07:03;;;;;;;11.13;4.07;;;21.10;47.30;;;24.75;32.10;101483.03;5092642;28;20062;-40
2021/11/12 12:09:52;;;;;;;7.22;2.90;;;21.10;47.30;;;24.76;32.01;101485.59;5092585;28;20484;-41
2021/11/12 12:12:31;;;;;;;11.10;3.25;;;21.10;47.30;;;24.75;32.07;101486.56;5092659;28;20088;-40
2021/11/12 12:15:05;;;;;;;10.73;3.50;;;21.10;47.30;;;24.75;32.16;101475.00;5092819;28;20075;-39
2021/11/12 12:17:38;;;;;;;8.35;3.30;;;21.10;47.30;;;24.73;32.12;101469.75;5073274;28;20056;-39
2021/11/12 13:23:28;;;;;;;6.13;2.50;;;21.00;47.40;;;24.69;32.15;101376.47;5091714;28;20044;-40
2021/11/12 13:26:04;;;;;;;5.22;2.80;;;21.00;47.40;;;24.66;32.21;101371.34;5091777;28;20130;-40
2021/11/12 13:28:47;;;;;;;3.28;2.33;;;21.00;47.50;;;24.69;32.17;101376.47;5091567;28;20437;-41
2021/11/12 13:31:23;;;;;;;5.22;2.30;;;21.00;47.40;;;24.66;32.27;101363.31;5073372;28;20526;-39
2021/11/12 13:33:54;;;;;;;4.55;2.92;;;21.00;47.50;;;24.71;32.07;101363.88;5091686;28;20055;-41
2021/11/12 13:36:31;;;;;;;;;;;21.00;47.50;;;24.83;32.00;101359.50;5092362;28;20052;-39
2021/11/12 13:39:18;;;;;;;8.05;2.80;;;21.00;47.50;;;24.69;32.05;101347.94;5095029;28;19916;-40
2021/11/12 13:41:54;;;;;;;8.02;2.88;;;21.00;47.50;;;24.71;32.21;101350.50;5095073;28;20164;-39
2021/11/12 13:44:35;;;;;;;4.90;2.50;;;21.00;47.40;;;24.70;32.06;101356.81;5095378;28;20055;-40
2021/11/12 13:47:16;;;;;;;6.65;2.55;;;21.00;47.40;;;24.69;32.16;101347.94;5095072;28;20048;-39
2021/11/12 13:49:45;;;;;;;6.25;2.90;;;21.00;47.40;;;24.69;32.06;101339.03;5095015;28;20498;-41
2021/11/12 13:52:27;;;;;;;6.47;2.33;;;21.00;47.50;;;24.69;32.18;101339.03;5094849;28;20139;-40
2021/11/12 13:55:10;;;;;;;5.20;2.13;;;21.00;47.50;;;24.69;32.03;101339.03;5077333;28;20097;-39
2021/11/12 13:57:36;;;;;;;5.38;2.45;;;21.00;47.50;;;24.67;32.19;101324.94;5094507;28;20059;-39
2021/11/12 14:00:15;;;;;;;4.97;2.38;;;21.00;47.50;;;24.65;32.12;101317.03;5095177;28;20048;-40
2021/11/12 14:03:02;;;;;;;3.22;2.47;;;21.00;47.60;;;24.67;32.26;101319.59;5094905;28;20075;-40
2021/11/12 14:05:28;;;;;;;6.93;2.80;;;21.00;47.60;;;24.66;32.10;101317.88;5094836;28;20043;-41
2021/11/12 14:08:11;;;;;;;4.50;2.30;;;21.00;47.60;;;24.66;32.27;101320.53;5094539;28;20054;-39
2021/11/12 14:10:46;;;;;;;5.65;2.30;;;21.00;47.60;;;24.66;32.22;101336.59;5076962;28;20379;-40
2021/11/12 14:13:16;;;;;;;3.22;2.13;;;21.00;47.60;;;24.67;32.22;101338.31;5095181;28;20048;-40
2021/11/12 14:16:21;;;;;;;3.88;2.22;;;20.90;47.60;;;24.63;32.13;101335.00;5094520;28;20052;-40
2021/11/12 14:19:36;;;;;;;4.75;2.20;;;20.90;47.70;;;24.65;32.25;101332.22;5094889;28;20048;-40
2021/11/12 14:22:04;;;;;;;4.45;2.97;;;20.90;47.60;;;24.71;32.12;101326.44;5094371;28;20127;-41
2021/11/12 14:24:51;;;;;;;2.95;2.25;;;20.90;47.60;;;24.70;32.06;101322.03;5094542;28;20133;-38
2021/11/12 14:27:32;;;;;;;4.45;2.33;;;21.00;47.70;;;24.69;32.16;101323.88;5094618;28;20498;-39
2021/11/12 14:35:31;;;;;;;3.17;2.00;;;21.00;47.50;;;24.65;32.30;101300.97;5094195;28;20201;-38
2021/11/12 14:44:23;;;;;;;3.67;2.03;;;20.90;47.60;;;24.63;32.26;101288.69;5094280;28;20075;-38